sensor_id;sensor_type;location;lat;lon;timestamp;P1;durP1;ratioP1;P2;durP2;ratioP2
9997;SDS011;5038;53.064;8.624;2023-02-28T00:01:42;14.90;;;13.17;;
9997;SDS011;5038;53.064;8.624;2023-02-28T00:04:10;15.80;;;14.30;;
9997;SDS011;5038;53.064;8.624;2023-02-28T00:06:38;15.83;;;12.67;;
9997;SDS011;5038;53.064;8.624;2023-02-28T00:09:08;16.17;;;12.10;;
9997;SDS011;5038;53.064;8.624;2023-02-28T00:11:36;16.27;;;14.00;;
9997;SDS011;5038;53.064;8.624;2023-02-28T00:14:04;20.43;;;13.50;;
9997;SDS011;5038;53.064;8.624;2023-02-28T00:16:33;15.60;;;14.03;;
9997;SDS011;5038;53.064;8.624;2023-02-28T00:19:01;15.17;;;13.57;;
9997;SDS011;5038;53.064;8.624;2023-02-28T00:21:29;16.73;;;15.07;;
9997;SDS011;5038;53.064;8.624;2023-02-28T00:23:58;16.83;;;15.13;;
9997;SDS011;5038;53.064;8.624;2023-02-28T00:26:26;15.87;;;13.90;;
9997;SDS011;5038;53.064;8.624;2023-02-28T00:28:54;16.03;;;14.00;;
9997;SDS011;5038;53.064;8.624;2023-02-28T00:31:22;16.40;;;14.77;;
9997;SDS011;5038;53.064;8.624;2023-02-28T00:33:51;15.40;;;14.00;;
9997;SDS011;5038;53.064;8.624;2023-02-28T00:36:20;14.47;;;13.07;;
9997;SDS011;5038;53.064;8.624;2023-02-28T00:38:48;14.13;;;12.83;;
9997;SDS011;5038;53.064;8.624;2023-02-28T00:41:16;13.93;;;12.23;;
9997;SDS011;5038;53.064;8.624;2023-02-28T00:43:46;14.17;;;12.67;;
9997;SDS011;5038;53.064;8.624;2023-02-28T00:46:14;15.67;;;12.50;;
9997;SDS011;5038;53.064;8.624;2023-02-28T00:48:43;14.93;;;13.50;;
9997;SDS011;5038;53.064;8.624;2023-02-28T00:51:12;13.73;;;12.27;;
9997;SDS011;5038;53.064;8.624;2023-02-28T00:53:40;14.43;;;12.93;;
9997;SDS011;5038;53.064;8.624;2023-02-28T00:56:08;15.07;;;13.50;;
9997;SDS011;5038;53.064;8.624;2023-02-28T00:58:37;15.77;;;14.10;;
9997;SDS011;5038;53.064;8.624;2023-02-28T01:01:05;15.17;;;13.37;;
9997;SDS011;5038;53.064;8.624;2023-02-28T01:03:34;15.50;;;13.90;;
9997;SDS011;5038;53.064;8.624;2023-02-28T01:06:02;14.80;;;13.30;;
9997;SDS011;5038;53.064;8.624;2023-02-28T01:08:32;14.50;;;13.10;;
9997;SDS011;5038;53.064;8.624;2023-02-28T01:11:06;18.00;;;13.10;;
9997;SDS011;5038;53.064;8.624;2023-02-28T01:13:38;15.43;;;13.70;;
9997;SDS011;5038;53.064;8.624;2023-02-28T01:16:07;16.10;;;13.50;;
9997;SDS011;5038;53.064;8.624;2023-02-28T01:18:35;14.77;;;13.37;;
9997;SDS011;5038;53.064;8.624;2023-02-28T01:21:04;18.33;;;14.53;;
9997;SDS011;5038;53.064;8.624;2023-02-28T01:23:34;16.53;;;14.03;;
9997;SDS011;5038;53.064;8.624;2023-02-28T01:26:04;17.03;;;13.30;;
9997;SDS011;5038;53.064;8.624;2023-02-28T01:28:33;15.77;;;13.80;;
9997;SDS011;5038;53.064;8.624;2023-02-28T01:31:02;16.93;;;13.30;;
9997;SDS011;5038;53.064;8.624;2023-02-28T01:33:31;14.43;;;12.90;;
9997;SDS011;5038;53.064;8.624;2023-02-28T01:35:59;13.63;;;12.33;;
9997;SDS011;5038;53.064;8.624;2023-02-28T01:38:28;15.10;;;13.60;;
9997;SDS011;5038;53.064;8.624;2023-02-28T01:40:58;15.17;;;13.77;;
9997;SDS011;5038;53.064;8.624;2023-02-28T01:43:27;14.87;;;12.80;;
9997;SDS011;5038;53.064;8.624;2023-02-28T01:45:57;14.90;;;13.10;;
9997;SDS011;5038;53.064;8.624;2023-02-28T01:48:26;13.90;;;12.50;;
9997;SDS011;5038;53.064;8.624;2023-02-28T01:50:58;14.60;;;12.83;;
9997;SDS011;5038;53.064;8.624;2023-02-28T01:53:31;14.90;;;13.00;;
9997;SDS011;5038;53.064;8.624;2023-02-28T01:56:04;14.17;;;12.83;;
9997;SDS011;5038;53.064;8.624;2023-02-28T01:58:35;13.97;;;12.23;;
9997;SDS011;5038;53.064;8.624;2023-02-28T02:01:04;15.57;;;13.90;;
9997;SDS011;5038;53.064;8.624;2023-02-28T02:03:32;14.50;;;12.93;;
9997;SDS011;5038;53.064;8.624;2023-02-28T02:06:02;17.13;;;15.33;;
9997;SDS011;5038;53.064;8.624;2023-02-28T02:08:31;16.43;;;14.80;;
9997;SDS011;5038;53.064;8.624;2023-02-28T02:11:00;15.23;;;13.73;;
9997;SDS011;5038;53.064;8.624;2023-02-28T02:13:34;17.60;;;15.80;;
9997;SDS011;5038;53.064;8.624;2023-02-28T02:16:23;17.10;;;15.40;;
9997;SDS011;5038;53.064;8.624;2023-02-28T02:19:06;17.90;;;16.10;;
9997;SDS011;5038;53.064;8.624;2023-02-28T02:21:53;17.27;;;15.43;;
9997;SDS011;5038;53.064;8.624;2023-02-28T02:30:45;17.17;;;14.60;;
9997;SDS011;5038;53.064;8.624;2023-02-28T02:33:29;17.37;;;15.57;;
9997;SDS011;5038;53.064;8.624;2023-02-28T02:36:11;15.37;;;13.87;;
9997;SDS011;5038;53.064;8.624;2023-02-28T02:38:45;15.67;;;14.07;;
9997;SDS011;5038;53.064;8.624;2023-02-28T02:41:18;16.87;;;14.07;;
9997;SDS011;5038;53.064;8.624;2023-02-28T02:43:51;15.43;;;13.77;;
9997;SDS011;5038;53.064;8.624;2023-02-28T02:46:25;18.47;;;15.17;;
9997;SDS011;5038;53.064;8.624;2023-02-28T02:48:57;18.13;;;15.57;;
9997;SDS011;5038;53.064;8.624;2023-02-28T02:51:31;16.43;;;14.63;;
9997;SDS011;5038;53.064;8.624;2023-02-28T02:54:02;16.23;;;14.67;;
9997;SDS011;5038;53.064;8.624;2023-02-28T02:56:35;14.83;;;13.23;;
9997;SDS011;5038;53.064;8.624;2023-02-28T02:59:07;16.37;;;14.60;;
9997;SDS011;5038;53.064;8.624;2023-02-28T03:01:39;14.27;;;12.60;;
9997;SDS011;5038;53.064;8.624;2023-02-28T03:04:11;15.30;;;12.13;;
9997;SDS011;5038;53.064;8.624;2023-02-28T03:06:45;14.30;;;12.90;;
9997;SDS011;5038;53.064;8.624;2023-02-28T03:09:13;15.03;;;13.37;;
9997;SDS011;5038;53.064;8.624;2023-02-28T03:11:41;14.87;;;12.50;;
9997;SDS011;5038;53.064;8.624;2023-02-28T03:14:14;14.80;;;11.33;;
9997;SDS011;5038;53.064;8.624;2023-02-28T03:16:59;12.30;;;11.10;;
9997;SDS011;5038;53.064;8.624;2023-02-28T03:19:47;12.03;;;10.07;;
9997;SDS011;5038;53.064;8.624;2023-02-28T03:22:32;15.43;;;11.10;;
9997;SDS011;5038;53.064;8.624;2023-02-28T03:25:08;12.80;;;10.23;;
9997;SDS011;5038;53.064;8.624;2023-02-28T03:27:41;11.57;;;9.93;;
9997;SDS011;5038;53.064;8.624;2023-02-28T03:30:17;10.90;;;9.80;;
9997;SDS011;5038;53.064;8.624;2023-02-28T03:32:51;11.50;;;10.20;;
9997;SDS011;5038;53.064;8.624;2023-02-28T03:35:25;11.07;;;9.97;;
9997;SDS011;5038;53.064;8.624;2023-02-28T03:38:00;11.03;;;9.93;;
9997;SDS011;5038;53.064;8.624;2023-02-28T03:40:34;11.37;;;9.80;;
9997;SDS011;5038;53.064;8.624;2023-02-28T03:43:08;11.40;;;10.23;;
9997;SDS011;5038;53.064;8.624;2023-02-28T03:45:39;10.83;;;9.73;;
9997;SDS011;5038;53.064;8.624;2023-02-28T03:48:12;11.20;;;9.90;;
9997;SDS011;5038;53.064;8.624;2023-02-28T03:50:44;11.97;;;9.67;;
9997;SDS011;5038;53.064;8.624;2023-02-28T03:53:17;11.93;;;10.23;;
9997;SDS011;5038;53.064;8.624;2023-02-28T03:55:50;10.80;;;9.80;;
9997;SDS011;5038;53.064;8.624;2023-02-28T03:58:24;11.87;;;9.13;;
9997;SDS011;5038;53.064;8.624;2023-02-28T04:00:56;12.13;;;10.70;;
9997;SDS011;5038;53.064;8.624;2023-02-28T04:03:34;13.50;;;11.43;;
9997;SDS011;5038;53.064;8.624;2023-02-28T04:06:03;12.20;;;10.93;;
9997;SDS011;5038;53.064;8.624;2023-02-28T04:08:34;12.73;;;10.27;;
9997;SDS011;5038;53.064;8.624;2023-02-28T04:11:04;13.83;;;11.00;;
9997;SDS011;5038;53.064;8.624;2023-02-28T04:13:36;10.23;;;9.20;;
9997;SDS011;5038;53.064;8.624;2023-02-28T04:16:06;12.23;;;10.30;;
9997;SDS011;5038;53.064;8.624;2023-02-28T04:18:47;11.90;;;9.80;;
9997;SDS011;5038;53.064;8.624;2023-02-28T04:21:15;10.63;;;9.53;;
9997;SDS011;5038;53.064;8.624;2023-02-28T04:23:48;12.47;;;10.87;;
9997;SDS011;5038;53.064;8.624;2023-02-28T04:26:16;11.37;;;9.40;;
9997;SDS011;5038;53.064;8.624;2023-02-28T04:28:44;10.17;;;8.50;;
9997;SDS011;5038;53.064;8.624;2023-02-28T04:31:12;9.53;;;8.63;;
9997;SDS011;5038;53.064;8.624;2023-02-28T04:33:40;10.20;;;9.10;;
9997;SDS011;5038;53.064;8.624;2023-02-28T04:36:08;8.83;;;7.93;;
9997;SDS011;5038;53.064;8.624;2023-02-28T04:38:37;9.10;;;8.20;;
9997;SDS011;5038;53.064;8.624;2023-02-28T04:41:07;10.13;;;9.03;;
9997;SDS011;5038;53.064;8.624;2023-02-28T04:43:35;9.60;;;8.50;;
9997;SDS011;5038;53.064;8.624;2023-02-28T04:46:04;12.03;;;8.83;;
9997;SDS011;5038;53.064;8.624;2023-02-28T04:48:34;10.53;;;8.77;;
9997;SDS011;5038;53.064;8.624;2023-02-28T04:51:04;11.13;;;9.00;;
9997;SDS011;5038;53.064;8.624;2023-02-28T04:53:34;9.10;;;8.20;;
9997;SDS011;5038;53.064;8.624;2023-02-28T04:56:02;9.23;;;8.33;;
9997;SDS011;5038;53.064;8.624;2023-02-28T04:58:33;9.20;;;8.27;;
9997;SDS011;5038;53.064;8.624;2023-02-28T05:01:02;8.40;;;7.60;;
9997;SDS011;5038;53.064;8.624;2023-02-28T05:03:39;9.40;;;8.50;;
9997;SDS011;5038;53.064;8.624;2023-02-28T05:06:07;9.40;;;8.50;;
9997;SDS011;5038;53.064;8.624;2023-02-28T05:08:36;10.43;;;8.67;;
9997;SDS011;5038;53.064;8.624;2023-02-28T05:11:05;9.07;;;8.17;;
9997;SDS011;5038;53.064;8.624;2023-02-28T05:13:36;9.00;;;7.43;;
9997;SDS011;5038;53.064;8.624;2023-02-28T05:16:04;9.73;;;7.43;;
9997;SDS011;5038;53.064;8.624;2023-02-28T05:18:33;11.60;;;8.00;;
9997;SDS011;5038;53.064;8.624;2023-02-28T05:21:01;10.60;;;9.27;;
9997;SDS011;5038;53.064;8.624;2023-02-28T05:23:30;8.90;;;8.00;;
9997;SDS011;5038;53.064;8.624;2023-02-28T05:25:58;11.73;;;8.83;;
9997;SDS011;5038;53.064;8.624;2023-02-28T05:28:26;9.00;;;8.07;;
9997;SDS011;5038;53.064;8.624;2023-02-28T05:30:56;9.87;;;7.90;;
9997;SDS011;5038;53.064;8.624;2023-02-28T05:33:24;12.23;;;7.90;;
9997;SDS011;5038;53.064;8.624;2023-02-28T05:35:52;8.90;;;7.80;;
9997;SDS011;5038;53.064;8.624;2023-02-28T05:38:20;8.20;;;7.40;;
9997;SDS011;5038;53.064;8.624;2023-02-28T05:40:48;9.43;;;8.30;;
9997;SDS011;5038;53.064;8.624;2023-02-28T05:43:17;9.20;;;8.30;;
9997;SDS011;5038;53.064;8.624;2023-02-28T05:45:45;10.77;;;9.67;;
9997;SDS011;5038;53.064;8.624;2023-02-28T05:48:14;9.70;;;8.13;;
9997;SDS011;5038;53.064;8.624;2023-02-28T05:50:43;9.07;;;8.17;;
9997;SDS011;5038;53.064;8.624;2023-02-28T05:53:12;10.20;;;8.37;;
9997;SDS011;5038;53.064;8.624;2023-02-28T05:55:40;8.90;;;8.00;;
9997;SDS011;5038;53.064;8.624;2023-02-28T05:58:08;8.90;;;8.00;;
9997;SDS011;5038;53.064;8.624;2023-02-28T06:00:36;9.10;;;8.00;;
9997;SDS011;5038;53.064;8.624;2023-02-28T06:03:07;9.60;;;7.53;;
9997;SDS011;5038;53.064;8.624;2023-02-28T06:05:37;8.20;;;7.03;;
9997;SDS011;5038;53.064;8.624;2023-02-28T06:08:05;12.40;;;9.07;;
9997;SDS011;5038;53.064;8.624;2023-02-28T06:10:33;9.03;;;7.53;;
9997;SDS011;5038;53.064;8.624;2023-02-28T06:13:02;10.37;;;8.43;;
9997;SDS011;5038;53.064;8.624;2023-02-28T06:15:31;8.90;;;8.00;;
9997;SDS011;5038;53.064;8.624;2023-02-28T06:17:59;9.00;;;8.10;;
9997;SDS011;5038;53.064;8.624;2023-02-28T06:20:28;8.90;;;8.00;;
9997;SDS011;5038;53.064;8.624;2023-02-28T06:22:57;11.03;;;8.00;;
9997;SDS011;5038;53.064;8.624;2023-02-28T06:25:26;9.80;;;8.10;;
9997;SDS011;5038;53.064;8.624;2023-02-28T06:27:54;9.00;;;8.10;;
9997;SDS011;5038;53.064;8.624;2023-02-28T06:30:23;14.93;;;13.40;;
9997;SDS011;5038;53.064;8.624;2023-02-28T06:32:53;12.63;;;10.67;;
9997;SDS011;5038;53.064;8.624;2023-02-28T06:35:21;13.87;;;11.67;;
9997;SDS011;5038;53.064;8.624;2023-02-28T06:37:50;12.50;;;11.13;;
9997;SDS011;5038;53.064;8.624;2023-02-28T06:40:19;12.23;;;9.73;;
9997;SDS011;5038;53.064;8.624;2023-02-28T06:42:47;16.27;;;13.67;;
9997;SDS011;5038;53.064;8.624;2023-02-28T06:45:15;14.03;;;12.47;;
9997;SDS011;5038;53.064;8.624;2023-02-28T06:47:44;14.47;;;12.80;;
9997;SDS011;5038;53.064;8.624;2023-02-28T06:50:12;11.97;;;10.77;;
9997;SDS011;5038;53.064;8.624;2023-02-28T06:52:40;9.97;;;9.00;;
9997;SDS011;5038;53.064;8.624;2023-02-28T06:55:08;9.40;;;8.20;;
9997;SDS011;5038;53.064;8.624;2023-02-28T06:57:38;10.83;;;9.23;;
9997;SDS011;5038;53.064;8.624;2023-02-28T07:00:07;10.53;;;9.40;;
9997;SDS011;5038;53.064;8.624;2023-02-28T07:02:36;11.60;;;10.40;;
9997;SDS011;5038;53.064;8.624;2023-02-28T07:05:05;10.97;;;9.37;;
9997;SDS011;5038;53.064;8.624;2023-02-28T07:07:34;9.30;;;8.30;;
9997;SDS011;5038;53.064;8.624;2023-02-28T07:10:04;9.20;;;8.30;;
9997;SDS011;5038;53.064;8.624;2023-02-28T07:12:33;10.03;;;8.50;;
9997;SDS011;5038;53.064;8.624;2023-02-28T07:15:02;17.53;;;13.50;;
9997;SDS011;5038;53.064;8.624;2023-02-28T07:17:31;13.50;;;10.90;;
9997;SDS011;5038;53.064;8.624;2023-02-28T07:19:59;13.23;;;11.13;;
9997;SDS011;5038;53.064;8.624;2023-02-28T07:22:27;9.83;;;8.80;;
9997;SDS011;5038;53.064;8.624;2023-02-28T07:24:55;9.90;;;8.47;;
9997;SDS011;5038;53.064;8.624;2023-02-28T07:27:23;9.30;;;8.40;;
9997;SDS011;5038;53.064;8.624;2023-02-28T07:29:52;9.10;;;8.20;;
9997;SDS011;5038;53.064;8.624;2023-02-28T07:32:22;8.63;;;7.50;;
9997;SDS011;5038;53.064;8.624;2023-02-28T07:34:50;8.47;;;7.67;;
9997;SDS011;5038;53.064;8.624;2023-02-28T07:37:18;8.37;;;7.43;;
9997;SDS011;5038;53.064;8.624;2023-02-28T07:39:47;8.57;;;7.33;;
9997;SDS011;5038;53.064;8.624;2023-02-28T07:42:15;8.13;;;7.00;;
9997;SDS011;5038;53.064;8.624;2023-02-28T07:44:43;7.90;;;7.10;;
9997;SDS011;5038;53.064;8.624;2023-02-28T07:47:11;7.90;;;7.10;;
9997;SDS011;5038;53.064;8.624;2023-02-28T07:49:40;8.17;;;7.37;;
9997;SDS011;5038;53.064;8.624;2023-02-28T07:52:08;8.87;;;7.40;;
9997;SDS011;5038;53.064;8.624;2023-02-28T07:54:37;9.33;;;7.40;;
9997;SDS011;5038;53.064;8.624;2023-02-28T07:57:06;12.93;;;9.67;;
9997;SDS011;5038;53.064;8.624;2023-02-28T07:59:34;9.80;;;7.20;;
9997;SDS011;5038;53.064;8.624;2023-02-28T08:02:02;9.07;;;7.30;;
9997;SDS011;5038;53.064;8.624;2023-02-28T08:04:31;7.27;;;6.50;;
9997;SDS011;5038;53.064;8.624;2023-02-28T08:07:00;10.93;;;7.97;;
9997;SDS011;5038;53.064;8.624;2023-02-28T08:09:28;8.40;;;6.90;;
9997;SDS011;5038;53.064;8.624;2023-02-28T08:11:57;7.50;;;6.30;;
9997;SDS011;5038;53.064;8.624;2023-02-28T08:14:25;8.47;;;7.57;;
9997;SDS011;5038;53.064;8.624;2023-02-28T08:16:53;8.03;;;6.70;;
9997;SDS011;5038;53.064;8.624;2023-02-28T08:19:21;6.90;;;5.53;;
9997;SDS011;5038;53.064;8.624;2023-02-28T08:21:49;6.57;;;5.97;;
9997;SDS011;5038;53.064;8.624;2023-02-28T08:24:18;8.17;;;5.60;;
9997;SDS011;5038;53.064;8.624;2023-02-28T08:26:47;8.00;;;4.80;;
9997;SDS011;5038;53.064;8.624;2023-02-28T08:29:15;8.70;;;5.63;;
9997;SDS011;5038;53.064;8.624;2023-02-28T08:31:43;5.67;;;5.07;;
9997;SDS011;5038;53.064;8.624;2023-02-28T08:34:12;7.77;;;5.10;;
9997;SDS011;5038;53.064;8.624;2023-02-28T08:36:42;6.50;;;5.37;;
9997;SDS011;5038;53.064;8.624;2023-02-28T08:39:11;8.10;;;5.00;;
9997;SDS011;5038;53.064;8.624;2023-02-28T08:41:41;6.13;;;4.33;;
9997;SDS011;5038;53.064;8.624;2023-02-28T08:44:10;6.70;;;4.70;;
9997;SDS011;5038;53.064;8.624;2023-02-28T08:46:38;6.90;;;3.90;;
9997;SDS011;5038;53.064;8.624;2023-02-28T08:49:06;6.17;;;4.43;;
9997;SDS011;5038;53.064;8.624;2023-02-28T08:51:35;6.33;;;4.30;;
9997;SDS011;5038;53.064;8.624;2023-02-28T08:54:04;6.30;;;4.53;;
9997;SDS011;5038;53.064;8.624;2023-02-28T08:56:32;5.37;;;4.03;;
9997;SDS011;5038;53.064;8.624;2023-02-28T08:59:01;6.10;;;4.63;;
9997;SDS011;5038;53.064;8.624;2023-02-28T09:01:29;6.03;;;4.20;;
9997;SDS011;5038;53.064;8.624;2023-02-28T09:03:58;5.60;;;4.20;;
9997;SDS011;5038;53.064;8.624;2023-02-28T09:06:28;4.40;;;3.37;;
9997;SDS011;5038;53.064;8.624;2023-02-28T09:08:57;4.00;;;2.50;;
9997;SDS011;5038;53.064;8.624;2023-02-28T09:11:27;5.40;;;3.30;;
9997;SDS011;5038;53.064;8.624;2023-02-28T09:13:55;4.87;;;2.80;;
9997;SDS011;5038;53.064;8.624;2023-02-28T09:16:27;4.77;;;2.80;;
9997;SDS011;5038;53.064;8.624;2023-02-28T09:18:57;3.73;;;2.10;;
9997;SDS011;5038;53.064;8.624;2023-02-28T09:21:25;5.10;;;3.03;;
9997;SDS011;5038;53.064;8.624;2023-02-28T09:23:55;5.53;;;2.93;;
9997;SDS011;5038;53.064;8.624;2023-02-28T09:26:23;5.70;;;3.00;;
9997;SDS011;5038;53.064;8.624;2023-02-28T09:29:04;5.00;;;2.50;;
9997;SDS011;5038;53.064;8.624;2023-02-28T09:31:34;4.30;;;2.40;;
9997;SDS011;5038;53.064;8.624;2023-02-28T09:34:03;3.57;;;2.27;;
9997;SDS011;5038;53.064;8.624;2023-02-28T09:36:31;4.63;;;2.17;;
9997;SDS011;5038;53.064;8.624;2023-02-28T09:39:11;4.47;;;2.00;;
9997;SDS011;5038;53.064;8.624;2023-02-28T09:41:42;3.50;;;1.53;;
9997;SDS011;5038;53.064;8.624;2023-02-28T09:44:18;3.93;;;1.97;;
9997;SDS011;5038;53.064;8.624;2023-02-28T09:46:52;4.60;;;2.13;;
9997;SDS011;5038;53.064;8.624;2023-02-28T09:49:28;5.40;;;2.20;;
9997;SDS011;5038;53.064;8.624;2023-02-28T09:52:03;4.37;;;2.07;;
9997;SDS011;5038;53.064;8.624;2023-02-28T09:54:35;4.03;;;1.97;;
9997;SDS011;5038;53.064;8.624;2023-02-28T09:57:06;4.37;;;2.40;;
9997;SDS011;5038;53.064;8.624;2023-02-28T09:59:39;3.83;;;2.23;;
9997;SDS011;5038;53.064;8.624;2023-02-28T10:02:33;4.40;;;2.77;;
9997;SDS011;5038;53.064;8.624;2023-02-28T10:05:11;3.90;;;2.43;;
9997;SDS011;5038;53.064;8.624;2023-02-28T10:07:47;5.17;;;2.40;;
9997;SDS011;5038;53.064;8.624;2023-02-28T10:10:36;4.23;;;2.30;;
9997;SDS011;5038;53.064;8.624;2023-02-28T10:13:11;3.87;;;2.03;;
9997;SDS011;5038;53.064;8.624;2023-02-28T10:15:43;3.80;;;2.47;;
9997;SDS011;5038;53.064;8.624;2023-02-28T10:18:20;3.90;;;2.40;;
9997;SDS011;5038;53.064;8.624;2023-02-28T10:20:51;3.83;;;2.27;;
9997;SDS011;5038;53.064;8.624;2023-02-28T10:23:24;4.60;;;2.30;;
9997;SDS011;5038;53.064;8.624;2023-02-28T10:25:57;3.70;;;2.23;;
9997;SDS011;5038;53.064;8.624;2023-02-28T10:28:28;4.43;;;2.43;;
9997;SDS011;5038;53.064;8.624;2023-02-28T10:30:58;4.50;;;2.47;;
9997;SDS011;5038;53.064;8.624;2023-02-28T10:33:29;4.73;;;2.60;;
9997;SDS011;5038;53.064;8.624;2023-02-28T10:36:00;4.40;;;2.43;;
9997;SDS011;5038;53.064;8.624;2023-02-28T10:38:32;4.43;;;2.20;;
9997;SDS011;5038;53.064;8.624;2023-02-28T10:41:05;4.00;;;2.10;;
9997;SDS011;5038;53.064;8.624;2023-02-28T10:43:35;3.37;;;2.27;;
9997;SDS011;5038;53.064;8.624;2023-02-28T10:46:09;9.70;;;2.53;;
9997;SDS011;5038;53.064;8.624;2023-02-28T10:49:02;4.47;;;2.33;;
9997;SDS011;5038;53.064;8.624;2023-02-28T10:51:36;4.17;;;2.63;;
9997;SDS011;5038;53.064;8.624;2023-02-28T10:54:05;5.00;;;2.00;;
9997;SDS011;5038;53.064;8.624;2023-02-28T10:56:44;4.63;;;2.53;;
9997;SDS011;5038;53.064;8.624;2023-02-28T10:59:26;3.83;;;2.37;;
9997;SDS011;5038;53.064;8.624;2023-02-28T11:01:56;4.53;;;2.60;;
9997;SDS011;5038;53.064;8.624;2023-02-28T11:04:35;3.83;;;2.50;;
9997;SDS011;5038;53.064;8.624;2023-02-28T11:07:14;4.47;;;2.20;;
9997;SDS011;5038;53.064;8.624;2023-02-28T11:09:49;3.77;;;2.17;;
9997;SDS011;5038;53.064;8.624;2023-02-28T11:12:20;3.63;;;2.40;;
9997;SDS011;5038;53.064;8.624;2023-02-28T11:14:49;4.20;;;2.60;;
9997;SDS011;5038;53.064;8.624;2023-02-28T11:17:21;3.73;;;2.80;;
9997;SDS011;5038;53.064;8.624;2023-02-28T11:19:53;4.37;;;2.80;;
9997;SDS011;5038;53.064;8.624;2023-02-28T11:22:23;4.60;;;2.67;;
9997;SDS011;5038;53.064;8.624;2023-02-28T11:24:55;4.03;;;3.00;;
9997;SDS011;5038;53.064;8.624;2023-02-28T11:27:40;3.67;;;2.33;;
9997;SDS011;5038;53.064;8.624;2023-02-28T11:30:26;4.10;;;2.50;;
9997;SDS011;5038;53.064;8.624;2023-02-28T11:32:57;3.70;;;2.17;;
9997;SDS011;5038;53.064;8.624;2023-02-28T11:35:28;4.10;;;2.23;;
9997;SDS011;5038;53.064;8.624;2023-02-28T11:38:01;4.30;;;2.50;;
9997;SDS011;5038;53.064;8.624;2023-02-28T11:40:31;3.80;;;1.80;;
9997;SDS011;5038;53.064;8.624;2023-02-28T11:43:11;4.40;;;2.93;;
9997;SDS011;5038;53.064;8.624;2023-02-28T11:45:54;4.30;;;2.40;;
9997;SDS011;5038;53.064;8.624;2023-02-28T11:48:32;3.80;;;2.07;;
9997;SDS011;5038;53.064;8.624;2023-02-28T11:51:12;6.23;;;2.70;;
9997;SDS011;5038;53.064;8.624;2023-02-28T11:53:50;4.60;;;2.60;;
9997;SDS011;5038;53.064;8.624;2023-02-28T11:56:30;4.27;;;3.20;;
9997;SDS011;5038;53.064;8.624;2023-02-28T11:59:04;7.30;;;4.53;;
9997;SDS011;5038;53.064;8.624;2023-02-28T12:01:52;4.00;;;2.33;;
9997;SDS011;5038;53.064;8.624;2023-02-28T12:04:34;4.90;;;2.40;;
9997;SDS011;5038;53.064;8.624;2023-02-28T12:07:14;4.03;;;2.60;;
9997;SDS011;5038;53.064;8.624;2023-02-28T12:09:49;4.20;;;2.40;;
9997;SDS011;5038;53.064;8.624;2023-02-28T12:12:29;4.53;;;2.43;;
9997;SDS011;5038;53.064;8.624;2023-02-28T12:15:17;6.00;;;2.90;;
9997;SDS011;5038;53.064;8.624;2023-02-28T12:18:07;6.13;;;5.00;;
9997;SDS011;5038;53.064;8.624;2023-02-28T12:20:49;5.20;;;3.13;;
9997;SDS011;5038;53.064;8.624;2023-02-28T12:23:40;5.53;;;3.13;;
9997;SDS011;5038;53.064;8.624;2023-02-28T12:26:18;4.60;;;3.10;;
9997;SDS011;5038;53.064;8.624;2023-02-28T12:28:53;4.80;;;3.07;;
9997;SDS011;5038;53.064;8.624;2023-02-28T12:31:26;4.60;;;2.73;;
9997;SDS011;5038;53.064;8.624;2023-02-28T12:34:01;4.77;;;2.67;;
9997;SDS011;5038;53.064;8.624;2023-02-28T12:36:33;4.83;;;2.23;;
9997;SDS011;5038;53.064;8.624;2023-02-28T12:39:06;4.53;;;2.60;;
9997;SDS011;5038;53.064;8.624;2023-02-28T12:41:40;5.10;;;2.30;;
9997;SDS011;5038;53.064;8.624;2023-02-28T12:44:12;6.60;;;2.87;;
9997;SDS011;5038;53.064;8.624;2023-02-28T12:46:44;5.20;;;2.57;;
9997;SDS011;5038;53.064;8.624;2023-02-28T12:49:16;4.63;;;2.90;;
9997;SDS011;5038;53.064;8.624;2023-02-28T12:51:47;3.93;;;2.60;;
9997;SDS011;5038;53.064;8.624;2023-02-28T12:54:21;3.50;;;2.37;;
9997;SDS011;5038;53.064;8.624;2023-02-28T12:56:54;4.40;;;2.60;;
9997;SDS011;5038;53.064;8.624;2023-02-28T12:59:32;4.53;;;2.97;;
9997;SDS011;5038;53.064;8.624;2023-02-28T13:02:33;4.10;;;2.37;;
9997;SDS011;5038;53.064;8.624;2023-02-28T13:05:52;4.80;;;2.97;;
9997;SDS011;5038;53.064;8.624;2023-02-28T13:08:51;4.30;;;2.70;;
9997;SDS011;5038;53.064;8.624;2023-02-28T13:11:30;5.30;;;2.73;;
9997;SDS011;5038;53.064;8.624;2023-02-28T13:14:02;3.80;;;3.00;;
9997;SDS011;5038;53.064;8.624;2023-02-28T13:19:30;4.90;;;2.90;;
9997;SDS011;5038;53.064;8.624;2023-02-28T13:22:01;4.40;;;2.60;;
9997;SDS011;5038;53.064;8.624;2023-02-28T13:24:40;4.20;;;2.90;;
9997;SDS011;5038;53.064;8.624;2023-02-28T13:33:19;4.70;;;3.40;;
9997;SDS011;5038;53.064;8.624;2023-02-28T13:36:22;5.40;;;3.23;;
9997;SDS011;5038;53.064;8.624;2023-02-28T13:38:59;5.10;;;2.97;;
9997;SDS011;5038;53.064;8.624;2023-02-28T13:41:46;4.53;;;2.67;;
9997;SDS011;5038;53.064;8.624;2023-02-28T13:44:19;5.50;;;2.30;;
9997;SDS011;5038;53.064;8.624;2023-02-28T13:50:07;4.27;;;2.77;;
9997;SDS011;5038;53.064;8.624;2023-02-28T13:52:48;4.70;;;2.50;;
9997;SDS011;5038;53.064;8.624;2023-02-28T13:55:24;7.63;;;2.63;;
9997;SDS011;5038;53.064;8.624;2023-02-28T13:58:03;6.00;;;2.40;;
9997;SDS011;5038;53.064;8.624;2023-02-28T14:00:57;4.10;;;2.50;;
9997;SDS011;5038;53.064;8.624;2023-02-28T14:03:44;4.10;;;2.53;;
9997;SDS011;5038;53.064;8.624;2023-02-28T14:06:26;4.43;;;2.43;;
9997;SDS011;5038;53.064;8.624;2023-02-28T14:08:59;3.90;;;2.57;;
9997;SDS011;5038;53.064;8.624;2023-02-28T14:11:31;3.77;;;2.43;;
9997;SDS011;5038;53.064;8.624;2023-02-28T14:14:01;5.20;;;2.87;;
9997;SDS011;5038;53.064;8.624;2023-02-28T14:16:39;3.30;;;2.00;;
9997;SDS011;5038;53.064;8.624;2023-02-28T14:19:12;4.20;;;2.90;;
9997;SDS011;5038;53.064;8.624;2023-02-28T14:21:52;4.93;;;3.23;;
9997;SDS011;5038;53.064;8.624;2023-02-28T14:24:42;5.80;;;2.70;;
9997;SDS011;5038;53.064;8.624;2023-02-28T14:27:24;4.13;;;2.83;;
9997;SDS011;5038;53.064;8.624;2023-02-28T14:33:03;6.00;;;2.53;;
9997;SDS011;5038;53.064;8.624;2023-02-28T14:35:46;4.90;;;2.80;;
9997;SDS011;5038;53.064;8.624;2023-02-28T14:38:24;5.47;;;2.37;;
9997;SDS011;5038;53.064;8.624;2023-02-28T14:40:56;4.10;;;2.60;;
9997;SDS011;5038;53.064;8.624;2023-02-28T14:43:27;4.50;;;2.50;;
9997;SDS011;5038;53.064;8.624;2023-02-28T14:45:56;4.40;;;2.40;;
9997;SDS011;5038;53.064;8.624;2023-02-28T14:48:28;5.33;;;2.80;;
9997;SDS011;5038;53.064;8.624;2023-02-28T14:50:57;4.73;;;2.47;;
9997;SDS011;5038;53.064;8.624;2023-02-28T14:53:28;4.50;;;2.60;;
9997;SDS011;5038;53.064;8.624;2023-02-28T14:56:02;3.53;;;2.40;;
9997;SDS011;5038;53.064;8.624;2023-02-28T14:58:31;3.43;;;2.27;;
9997;SDS011;5038;53.064;8.624;2023-02-28T15:01:01;6.10;;;2.90;;
9997;SDS011;5038;53.064;8.624;2023-02-28T15:03:33;4.00;;;2.53;;
9997;SDS011;5038;53.064;8.624;2023-02-28T15:06:03;4.77;;;2.87;;
9997;SDS011;5038;53.064;8.624;2023-02-28T15:08:33;3.50;;;2.50;;
9997;SDS011;5038;53.064;8.624;2023-02-28T15:11:03;3.40;;;2.30;;
9997;SDS011;5038;53.064;8.624;2023-02-28T15:13:36;4.37;;;2.90;;
9997;SDS011;5038;53.064;8.624;2023-02-28T15:16:08;4.27;;;2.37;;
9997;SDS011;5038;53.064;8.624;2023-02-28T15:18:43;3.60;;;2.40;;
9997;SDS011;5038;53.064;8.624;2023-02-28T15:21:15;3.93;;;2.30;;
9997;SDS011;5038;53.064;8.624;2023-02-28T15:23:48;4.00;;;2.17;;
9997;SDS011;5038;53.064;8.624;2023-02-28T15:26:19;4.47;;;2.73;;
9997;SDS011;5038;53.064;8.624;2023-02-28T15:28:50;3.80;;;2.90;;
9997;SDS011;5038;53.064;8.624;2023-02-28T15:31:23;4.10;;;3.00;;
9997;SDS011;5038;53.064;8.624;2023-02-28T15:34:05;4.53;;;2.93;;
9997;SDS011;5038;53.064;8.624;2023-02-28T15:36:34;3.83;;;2.83;;
9997;SDS011;5038;53.064;8.624;2023-02-28T15:39:16;5.10;;;2.90;;
9997;SDS011;5038;53.064;8.624;2023-02-28T15:41:48;4.97;;;3.40;;
9997;SDS011;5038;53.064;8.624;2023-02-28T15:44:22;4.40;;;3.07;;
9997;SDS011;5038;53.064;8.624;2023-02-28T15:46:54;3.77;;;2.53;;
9997;SDS011;5038;53.064;8.624;2023-02-28T15:49:27;5.00;;;2.57;;
9997;SDS011;5038;53.064;8.624;2023-02-28T15:52:00;4.47;;;2.90;;
9997;SDS011;5038;53.064;8.624;2023-02-28T15:54:29;4.60;;;2.70;;
9997;SDS011;5038;53.064;8.624;2023-02-28T15:57:02;5.03;;;3.00;;
9997;SDS011;5038;53.064;8.624;2023-02-28T15:59:32;4.20;;;2.87;;